Map

Track Data

SID SEASON NUMBER BASIN SUBBASIN NAME ISO_TIME NATURE LAT LON WMO_WIND WMO_PRES WMO_AGENCY TRACK_TYPE DIST2LAND LANDFALL IFLAG USA_AGENCY USA_ATCF_ID USA_LAT USA_LON USA_RECORD USA_STATUS USA_WIND USA_PRES USA_SSHS USA_R34_NE USA_R34_SE USA_R34_SW USA_R34_NW USA_R50_NE USA_R50_SE USA_R50_SW USA_R50_NW USA_R64_NE USA_R64_SE USA_R64_SW USA_R64_NW USA_POCI USA_ROCI USA_RMW USA_EYE TOKYO_LAT TOKYO_LON TOKYO_GRADE TOKYO_WIND TOKYO_PRES TOKYO_R50_DIR TOKYO_R50_LONG TOKYO_R50_SHORT TOKYO_R30_DIR TOKYO_R30_LONG TOKYO_R30_SHORT TOKYO_LAND CMA_LAT CMA_LON CMA_CAT CMA_WIND CMA_PRES HKO_LAT HKO_LON HKO_CAT HKO_WIND HKO_PRES NEWDELHI_LAT NEWDELHI_LON NEWDELHI_GRADE NEWDELHI_WIND NEWDELHI_PRES NEWDELHI_CI NEWDELHI_DP NEWDELHI_POCI REUNION_LAT REUNION_LON REUNION_TYPE REUNION_WIND REUNION_PRES REUNION_TNUM REUNION_CI REUNION_RMW REUNION_R34_NE REUNION_R34_SE REUNION_R34_SW REUNION_R34_NW REUNION_R50_NE REUNION_R50_SE REUNION_R50_SW REUNION_R50_NW REUNION_R64_NE REUNION_R64_SE REUNION_R64_SW REUNION_R64_NW BOM_LAT BOM_LON BOM_TYPE BOM_WIND BOM_PRES BOM_TNUM BOM_CI BOM_RMW BOM_R34_NE BOM_R34_SE BOM_R34_SW BOM_R34_NW BOM_R50_NE BOM_R50_SE BOM_R50_SW BOM_R50_NW BOM_R64_NE BOM_R64_SE BOM_R64_SW BOM_R64_NW BOM_ROCI BOM_POCI BOM_EYE BOM_POS_METHOD BOM_PRES_METHOD NADI_LAT NADI_LON NADI_CAT NADI_WIND NADI_PRES WELLINGTON_LAT WELLINGTON_LON WELLINGTON_WIND WELLINGTON_PRES DS824_LAT DS824_LON DS824_STAGE DS824_WIND DS824_PRES TD9636_LAT TD9636_LON TD9636_STAGE TD9636_WIND TD9636_PRES TD9635_LAT TD9635_LON TD9635_WIND TD9635_PRES TD9635_ROCI NEUMANN_LAT NEUMANN_LON NEUMANN_CLASS NEUMANN_WIND NEUMANN_PRES MLC_LAT MLC_LON MLC_CLASS MLC_WIND MLC_PRES USA_GUST BOM_GUST BOM_GUST_PER REUNION_GUST REUNION_GUST_PER USA_SEAHGT USA_SEARAD_NE USA_SEARAD_SE USA_SEARAD_SW USA_SEARAD_NW STORM_SPEED STORM_DIR
2007242N19251 2007 49 EP MM GIL 2007-08-29 12:00:00 TS 19.4000 -109.000 30 1004 hurdat_epa main 362 362 O_____________ hurdat_epa EP102007 19.4000 -109.000 TD 30 1004 -1 1007 120 40 40 9 279
2007242N19251 2007 49 EP MM GIL 2007-08-29 15:00:00 TS 19.4676 -109.475 main 381 380 P_____________ EP102007 19.4676 -109.475 TD 32 1003 -1 1007 135 30 9 276
2007242N19251 2007 49 EP MM GIL 2007-08-29 18:00:00 TS 19.5000 -110.000 35 1003 hurdat_epa main 380 380 O_____________ hurdat_epa EP102007 19.5000 -110.000 TS 35 1003 0 30 30 45 1008 150 20 11 270
2007242N19251 2007 49 EP MM GIL 2007-08-29 21:00:00 TS 19.4726 -110.600 main 385 385 P_____________ EP102007 19.4726 -110.600 TS 35 1003 0 30 30 45 1008 175 20 11 265
2007242N19251 2007 49 EP MM GIL 2007-08-30 00:00:00 TS 19.4000 -111.200 35 1003 hurdat_epa main 410 410 O_____________ hurdat_epa EP102007 19.4000 -111.200 TS 35 1003 0 30 30 45 1008 200 20 45 11 260
2007242N19251 2007 49 EP MM GIL 2007-08-30 03:00:00 TS 19.2923 -111.723 main 439 439 P_____________ EP102007 19.2923 -111.723 TS 37 1003 0 25 37 45 1008 200 20 10 258
2007242N19251 2007 49 EP MM GIL 2007-08-30 06:00:00 TS 19.2000 -112.200 40 1003 hurdat_epa main 472 472 O_____________ hurdat_epa EP102007 19.2000 -112.200 TS 40 1003 0 20 45 45 1008 200 20 45 9 263
2007242N19251 2007 49 EP MM GIL 2007-08-30 09:00:00 TS 19.1848 -112.657 main 499 499 P_____________ EP102007 19.1848 -112.657 TS 40 1002 0 20 45 45 1008 200 20 9 270
2007242N19251 2007 49 EP MM GIL 2007-08-30 12:00:00 TS 19.2000 -113.100 40 1001 hurdat_epa main 524 524 O_____________ hurdat_epa EP102007 19.2000 -113.100 TS 40 1001 0 20 45 45 1008 200 20 45 8 272
2007242N19251 2007 49 EP MM GIL 2007-08-30 15:00:00 TS 19.2074 -113.550 main 550 550 P_____________ EP102007 19.2074 -113.550 TS 40 1001 0 20 45 45 1008 200 20 9 270
2007242N19251 2007 49 EP MM GIL 2007-08-30 18:00:00 TS 19.2000 -114.000 40 1002 hurdat_epa main 585 585 O_____________ hurdat_epa EP102007 19.2000 -114.000 TS 40 1002 0 20 45 45 1008 200 20 50 8 267
2007242N19251 2007 49 EP MM GIL 2007-08-30 21:00:00 TS 19.1573 -114.443 main 616 616 P_____________ EP102007 19.1573 -114.443 TS 40 1002 0 20 45 45 1008 200 20 9 263
2007242N19251 2007 49 EP MM GIL 2007-08-31 00:00:00 TS 19.1000 -114.900 40 1002 hurdat_epa main 662 662 O_____________ hurdat_epa EP102007 19.1000 -114.900 TS 40 1002 0 20 45 45 1008 200 20 50 9 264
2007242N19251 2007 49 EP MM GIL 2007-08-31 03:00:00 TS 19.0574 -115.392 main 703 703 P_____________ EP102007 19.0574 -115.392 TS 37 1002 0 20 45 45 1008 200 20 10 264
2007242N19251 2007 49 EP MM GIL 2007-08-31 06:00:00 TS 19.0000 -115.900 35 1003 hurdat_epa main 746 746 O_____________ hurdat_epa EP102007 19.0000 -115.900 TS 35 1003 0 20 45 45 1008 200 20 50 10 261
2007242N19251 2007 49 EP MM GIL 2007-08-31 09:00:00 TS 18.8999 -116.408 main 785 785 P_____________ EP102007 18.8999 -116.408 TS 35 1003 0 25 35 45 1008 200 20 10 258
2007242N19251 2007 49 EP MM GIL 2007-08-31 12:00:00 TS 18.8000 -116.900 35 1004 hurdat_epa main 824 824 O_____________ hurdat_epa EP102007 18.8000 -116.900 TS 35 1004 0 30 25 45 30 1008 200 20 45 9 260
2007242N19251 2007 49 EP MM GIL 2007-08-31 15:00:00 TS 18.7424 -117.365 main 865 865 P_____________ EP102007 18.7424 -117.365 TS 35 1004 0 30 25 45 30 1008 200 20 9 263
2007242N19251 2007 49 EP MM GIL 2007-08-31 18:00:00 TS 18.7000 -117.800 35 1005 hurdat_epa main 892 892 O_____________ hurdat_epa EP102007 18.7000 -117.800 TS 35 1005 0 30 25 45 30 1008 200 20 45 8 263
2007242N19251 2007 49 EP MM GIL 2007-08-31 21:00:00 TS 18.6423 -118.200 main 928 928 P_____________ EP102007 18.6423 -118.200 TS 32 1005 -1 1008 200 22 8 262
2007242N19251 2007 49 EP MM GIL 2007-09-01 00:00:00 TS 18.6000 -118.600 30 1005 hurdat_epa main 956 956 O_____________ hurdat_epa EP102007 18.6000 -118.600 TD 30 1005 -1 1008 200 25 40 8 265
2007242N19251 2007 49 EP MM GIL 2007-09-01 03:00:00 TS 18.5775 -119.050 main 993 993 P_____________ EP102007 18.5775 -119.050 TD 30 1005 -1 1008 200 27 9 270
2007242N19251 2007 49 EP MM GIL 2007-09-01 06:00:00 TS 18.6000 -119.500 30 1005 hurdat_epa main 1023 1023 O_____________ hurdat_epa EP102007 18.6000 -119.500 TD 30 1005 -1 1008 200 30 40 8 278
2007242N19251 2007 49 EP MM GIL 2007-09-01 09:00:00 TS 18.6848 -119.900 main 1047 1047 P_____________ EP102007 18.6848 -119.900 TD 27 1005 -1 1008 175 30 8 285
2007242N19251 2007 49 EP MM GIL 2007-09-01 12:00:00 TS 18.8000 -120.300 25 1005 hurdat_epa main 1071 1071 O_____________ hurdat_epa EP102007 18.8000 -120.300 TD 25 1005 -1 1008 150 30 35 8 285
2007242N19251 2007 49 EP MM GIL 2007-09-01 15:00:00 TS 18.8999 -120.743 main 1096 1096 P_____________ EP102007 18.8999 -120.743 TD 25 1005 -1 1008 135 30 9 283
2007242N19251 2007 49 EP MM GIL 2007-09-01 18:00:00 TS 19.0000 -121.200 25 1005 hurdat_epa main 1131 1131 O_____________ hurdat_epa EP102007 19.0000 -121.200 TD 25 1005 -1 1008 120 30 35 9 283
2007242N19251 2007 49 EP MM GIL 2007-09-01 21:00:00 TS 19.0999 -121.658 main 1167 1167 P_____________ EP102007 19.0999 -121.658 TD 25 1005 -1 1008 120 30 9 283
2007242N19251 2007 49 EP MM GIL 2007-09-02 00:00:00 TS 19.2000 -122.100 25 1005 hurdat_epa main 1190 1190 O_____________ hurdat_epa EP102007 19.2000 -122.100 TD 25 1005 -1 1008 120 30 35 8 284
2007242N19251 2007 49 EP MM GIL 2007-09-02 03:00:00 TS 19.2999 -122.508 main 1209 1209 P_____________ EP102007 19.2999 -122.508 TD 25 1005 -1 1008 120 30 8 285
2007242N19251 2007 49 EP MM GIL 2007-09-02 06:00:00 TS 19.4000 -122.900 25 1005 hurdat_epa main 1227 1227 O_____________ hurdat_epa EP102007 19.4000 -122.900 TD 25 1005 -1 1008 120 30 35 8 283
2007242N19251 2007 49 EP MM GIL 2007-09-02 09:00:00 TS 19.4851 -123.345 main 1245 1245 P_____________ EP102007 19.4851 -123.345 TD 25 1005 -1 1008 90 30 8 285
2007242N19251 2007 49 EP MM GIL 2007-09-02 12:00:00 TS 19.6000 -123.700 25 1006 hurdat_epa main 1265 1256 O_____________ hurdat_epa EP102007 19.6000 -123.700 TD 25 1006 -1 1008 60 30 25 6 303
2007242N19251 2007 49 EP MM GIL 2007-09-02 15:00:00 TS 19.7923 -123.838 main 1256 1247 P_____________ EP102007 19.7923 -123.838 TD 22 1006 -1 4 335
2007242N19251 2007 49 EP MM GIL 2007-09-02 18:00:00 DS 20.0000 -123.900 20 1007 hurdat_epa main 1247 1239 O_____________ hurdat_epa EP102007 20.0000 -123.900 LO 20 1007 -3 4 334
2007242N19251 2007 49 EP MM GIL 2007-09-02 21:00:00 DS 20.1651 -124.025 main 1239 1239 P_____________ EP102007 20.1651 -124.025 LO 20 1007 -3 4 317
2007242N19251 2007 49 EP MM GIL 2007-09-03 00:00:00 DS 20.3000 -124.200 20 1008 hurdat_epa main 1246 O_____________ hurdat_epa EP102007 20.3000 -124.200 LO 20 1008 -3 4 309

About IBTrACS Database

This database is a web-friendly format of International Best Track Archive for Climate Stewardship (IBTrACS), a global best track data archive curated by NOAA dating back to 1842.

Updated: 2021-10-08